sensor_id;sensor_type;location;lat;lon;timestamp;temperature;humidity
56436;DHT22;42335;44.872;20.658;2022-12-18T00:00:43;102.50;2227.20
56436;DHT22;42335;44.872;20.658;2022-12-18T00:03:09;102.50;2227.20
56436;DHT22;42335;44.872;20.658;2022-12-18T00:05:35;102.40;2227.20
56436;DHT22;42335;44.872;20.658;2022-12-18T00:08:01;102.50;2227.20
56436;DHT22;42335;44.872;20.658;2022-12-18T00:10:28;102.50;2227.20
56436;DHT22;42335;44.872;20.658;2022-12-18T00:12:54;102.50;2227.20
56436;DHT22;42335;44.872;20.658;2022-12-18T00:15:20;102.50;2227.20
56436;DHT22;42335;44.872;20.658;2022-12-18T00:17:45;102.40;2227.20
56436;DHT22;42335;44.872;20.658;2022-12-18T00:20:11;102.40;2227.20
56436;DHT22;42335;44.872;20.658;2022-12-18T00:22:37;102.40;2227.20
56436;DHT22;42335;44.872;20.658;2022-12-18T00:25:03;102.40;2227.20
56436;DHT22;42335;44.872;20.658;2022-12-18T00:27:29;77.70;2227.20
56436;DHT22;42335;44.872;20.658;2022-12-18T00:29:54;102.40;2227.20
56436;DHT22;42335;44.872;20.658;2022-12-18T00:32:20;102.40;2227.20
56436;DHT22;42335;44.872;20.658;2022-12-18T00:34:46;102.40;2227.20
56436;DHT22;42335;44.872;20.658;2022-12-18T00:37:11;77.70;2227.20
56436;DHT22;42335;44.872;20.658;2022-12-18T00:39:37;77.70;2227.20
56436;DHT22;42335;44.872;20.658;2022-12-18T00:42:03;77.70;2227.20
56436;DHT22;42335;44.872;20.658;2022-12-18T00:44:47;77.70;2227.20
56436;DHT22;42335;44.872;20.658;2022-12-18T00:47:13;77.70;2227.20
56436;DHT22;42335;44.872;20.658;2022-12-18T00:49:38;77.70;2227.20
56436;DHT22;42335;44.872;20.658;2022-12-18T00:52:04;77.60;2227.20
56436;DHT22;42335;44.872;20.658;2022-12-18T00:54:30;77.60;2227.20
56436;DHT22;42335;44.872;20.658;2022-12-18T00:56:55;77.60;2227.20
56436;DHT22;42335;44.872;20.658;2022-12-18T00:59:21;77.70;2227.20
56436;DHT22;42335;44.872;20.658;2022-12-18T01:01:47;77.70;2227.20
56436;DHT22;42335;44.872;20.658;2022-12-18T01:04:13;77.60;2227.20
56436;DHT22;42335;44.872;20.658;2022-12-18T01:06:38;77.60;2227.20
56436;DHT22;42335;44.872;20.658;2022-12-18T01:09:05;77.60;2227.20
56436;DHT22;42335;44.872;20.658;2022-12-18T01:11:30;77.50;2227.20
56436;DHT22;42335;44.872;20.658;2022-12-18T01:13:56;77.60;2227.20
56436;DHT22;42335;44.872;20.658;2022-12-18T01:16:25;77.70;2227.20
56436;DHT22;42335;44.872;20.658;2022-12-18T01:18:54;77.70;2227.20
56436;DHT22;42335;44.872;20.658;2022-12-18T01:21:20;77.60;2227.20
56436;DHT22;42335;44.872;20.658;2022-12-18T01:23:51;77.50;2227.20
56436;DHT22;42335;44.872;20.658;2022-12-18T01:26:17;77.50;2227.20
56436;DHT22;42335;44.872;20.658;2022-12-18T01:28:43;77.50;2227.20
56436;DHT22;42335;44.872;20.658;2022-12-18T01:31:21;77.60;2227.20
56436;DHT22;42335;44.872;20.658;2022-12-18T01:33:48;77.50;2227.20
56436;DHT22;42335;44.872;20.658;2022-12-18T01:36:37;77.50;2227.20
56436;DHT22;42335;44.872;20.658;2022-12-18T01:39:03;77.50;2227.20
56436;DHT22;42335;44.872;20.658;2022-12-18T01:41:31;77.40;2227.20
56436;DHT22;42335;44.872;20.658;2022-12-18T01:47:36;77.40;2227.20
56436;DHT22;42335;44.872;20.658;2022-12-18T01:50:15;77.50;2227.20
56436;DHT22;42335;44.872;20.658;2022-12-18T01:52:44;77.40;2227.20
56436;DHT22;42335;44.872;20.658;2022-12-18T01:55:11;77.40;2227.20
56436;DHT22;42335;44.872;20.658;2022-12-18T01:57:38;77.40;2227.20
56436;DHT22;42335;44.872;20.658;2022-12-18T02:00:10;77.40;2227.20
56436;DHT22;42335;44.872;20.658;2022-12-18T02:02:37;77.50;2227.20
56436;DHT22;42335;44.872;20.658;2022-12-18T02:05:03;77.40;2227.20
56436;DHT22;42335;44.872;20.658;2022-12-18T02:10:06;77.40;2227.20
56436;DHT22;42335;44.872;20.658;2022-12-18T02:12:45;77.40;2227.20
56436;DHT22;42335;44.872;20.658;2022-12-18T02:15:49;77.40;2227.20
56436;DHT22;42335;44.872;20.658;2022-12-18T02:18:23;77.40;2227.20
56436;DHT22;42335;44.872;20.658;2022-12-18T02:20:58;77.50;2227.20
56436;DHT22;42335;44.872;20.658;2022-12-18T02:29:16;77.40;2227.20
56436;DHT22;42335;44.872;20.658;2022-12-18T02:31:47;77.30;2227.20
56436;DHT22;42335;44.872;20.658;2022-12-18T02:34:15;77.20;2227.20
56436;DHT22;42335;44.872;20.658;2022-12-18T02:36:43;77.20;2227.20
56436;DHT22;42335;44.872;20.658;2022-12-18T02:39:11;77.10;2227.20
56436;DHT22;42335;44.872;20.658;2022-12-18T02:41:38;77.20;2227.20
56436;DHT22;42335;44.872;20.658;2022-12-18T02:44:10;77.10;2227.20
56436;DHT22;42335;44.872;20.658;2022-12-18T02:51:50;77.20;2227.20
56436;DHT22;42335;44.872;20.658;2022-12-18T02:54:35;77.10;2227.20
56436;DHT22;42335;44.872;20.658;2022-12-18T03:03:11;77.20;2227.20
56436;DHT22;42335;44.872;20.658;2022-12-18T03:08:28;77.20;2227.20
56436;DHT22;42335;44.872;20.658;2022-12-18T03:11:03;77.20;2227.20
56436;DHT22;42335;44.872;20.658;2022-12-18T03:13:49;77.20;2227.20
56436;DHT22;42335;44.872;20.658;2022-12-18T03:16:25;77.20;2227.20
56436;DHT22;42335;44.872;20.658;2022-12-18T03:18:56;77.10;2227.20
56436;DHT22;42335;44.872;20.658;2022-12-18T03:21:33;77.20;2227.20
56436;DHT22;42335;44.872;20.658;2022-12-18T03:24:04;77.20;2227.20
56436;DHT22;42335;44.872;20.658;2022-12-18T03:26:33;77.20;2227.20
56436;DHT22;42335;44.872;20.658;2022-12-18T03:29:03;77.10;2227.20
56436;DHT22;42335;44.872;20.658;2022-12-18T03:31:32;77.10;2227.20
56436;DHT22;42335;44.872;20.658;2022-12-18T03:34:04;77.10;2227.20
56436;DHT22;42335;44.872;20.658;2022-12-18T03:36:31;77.00;2227.20
56436;DHT22;42335;44.872;20.658;2022-12-18T03:38:58;77.00;2227.20
56436;DHT22;42335;44.872;20.658;2022-12-18T03:41:44;77.00;2227.20
56436;DHT22;42335;44.872;20.658;2022-12-18T03:47:17;76.80;2227.20
56436;DHT22;42335;44.872;20.658;2022-12-18T03:52:53;76.80;2227.20
56436;DHT22;42335;44.872;20.658;2022-12-18T03:55:23;76.90;2227.20
56436;DHT22;42335;44.872;20.658;2022-12-18T03:57:52;76.80;2227.20
56436;DHT22;42335;44.872;20.658;2022-12-18T04:00:18;76.80;2227.20
56436;DHT22;42335;44.872;20.658;2022-12-18T04:02:52;76.80;2227.20
56436;DHT22;42335;44.872;20.658;2022-12-18T04:05:20;76.80;2227.20
56436;DHT22;42335;44.872;20.658;2022-12-18T04:07:48;52.10;2227.20
56436;DHT22;42335;44.872;20.658;2022-12-18T04:10:15;52.00;2227.20
56436;DHT22;42335;44.872;20.658;2022-12-18T04:12:42;52.00;2227.20
56436;DHT22;42335;44.872;20.658;2022-12-18T04:15:08;52.00;2227.20
56436;DHT22;42335;44.872;20.658;2022-12-18T04:17:34;51.90;2227.20
56436;DHT22;42335;44.872;20.658;2022-12-18T04:20:00;51.90;2227.20
56436;DHT22;42335;44.872;20.658;2022-12-18T04:22:27;51.90;2227.20
56436;DHT22;42335;44.872;20.658;2022-12-18T04:24:52;51.80;2227.20
56436;DHT22;42335;44.872;20.658;2022-12-18T04:27:18;51.80;2227.20
56436;DHT22;42335;44.872;20.658;2022-12-18T04:29:44;51.70;2227.20
56436;DHT22;42335;44.872;20.658;2022-12-18T04:32:09;51.70;2227.20
56436;DHT22;42335;44.872;20.658;2022-12-18T04:34:35;51.70;2227.20
56436;DHT22;42335;44.872;20.658;2022-12-18T04:37:01;51.60;2227.20
56436;DHT22;42335;44.872;20.658;2022-12-18T04:39:26;51.50;2227.20
56436;DHT22;42335;44.872;20.658;2022-12-18T04:41:52;51.50;2227.20
56436;DHT22;42335;44.872;20.658;2022-12-18T04:44:18;51.50;2227.20
56436;DHT22;42335;44.872;20.658;2022-12-18T04:46:43;51.50;2227.20
56436;DHT22;42335;44.872;20.658;2022-12-18T04:49:09;51.40;2227.20
56436;DHT22;42335;44.872;20.658;2022-12-18T04:51:38;51.60;2227.20
56436;DHT22;42335;44.872;20.658;2022-12-18T04:54:04;51.30;2227.20
56436;DHT22;42335;44.872;20.658;2022-12-18T04:56:31;51.30;2227.20
56436;DHT22;42335;44.872;20.658;2022-12-18T04:58:57;51.20;2227.20
56436;DHT22;42335;44.872;20.658;2022-12-18T05:01:23;51.30;2227.20
56436;DHT22;42335;44.872;20.658;2022-12-18T05:03:48;51.20;2227.20
56436;DHT22;42335;44.872;20.658;2022-12-18T05:06:15;51.30;2227.20
56436;DHT22;42335;44.872;20.658;2022-12-18T05:08:41;51.30;2227.20
56436;DHT22;42335;44.872;20.658;2022-12-18T05:11:16;51.30;2227.20
56436;DHT22;42335;44.872;20.658;2022-12-18T05:13:43;51.30;2227.20
56436;DHT22;42335;44.872;20.658;2022-12-18T05:16:09;51.30;2227.20
56436;DHT22;42335;44.872;20.658;2022-12-18T05:18:35;51.40;2227.20
56436;DHT22;42335;44.872;20.658;2022-12-18T05:21:01;51.30;2227.20
56436;DHT22;42335;44.872;20.658;2022-12-18T05:23:27;51.40;2227.20
56436;DHT22;42335;44.872;20.658;2022-12-18T05:25:55;51.30;2227.20
56436;DHT22;42335;44.872;20.658;2022-12-18T05:28:22;51.30;2227.20
56436;DHT22;42335;44.872;20.658;2022-12-18T05:30:52;51.30;2227.20
56436;DHT22;42335;44.872;20.658;2022-12-18T05:33:19;51.30;2227.20
56436;DHT22;42335;44.872;20.658;2022-12-18T05:35:53;51.30;2227.20
56436;DHT22;42335;44.872;20.658;2022-12-18T05:38:20;51.20;2227.20
56436;DHT22;42335;44.872;20.658;2022-12-18T05:40:48;51.20;2227.20
56436;DHT22;42335;44.872;20.658;2022-12-18T05:43:13;51.30;2227.20
56436;DHT22;42335;44.872;20.658;2022-12-18T05:45:40;26.50;2201.60
56436;DHT22;42335;44.872;20.658;2022-12-18T05:48:06;26.50;2201.60
56436;DHT22;42335;44.872;20.658;2022-12-18T05:50:36;26.50;2201.60
56436;DHT22;42335;44.872;20.658;2022-12-18T05:53:03;26.50;2201.60
56436;DHT22;42335;44.872;20.658;2022-12-18T05:55:32;26.40;2201.60
56436;DHT22;42335;44.872;20.658;2022-12-18T05:57:58;26.40;2201.60
56436;DHT22;42335;44.872;20.658;2022-12-18T06:00:24;26.30;2201.60
56436;DHT22;42335;44.872;20.658;2022-12-18T06:02:50;26.20;2201.60
56436;DHT22;42335;44.872;20.658;2022-12-18T06:05:15;26.20;2201.60
56436;DHT22;42335;44.872;20.658;2022-12-18T06:07:41;26.20;2201.60
56436;DHT22;42335;44.872;20.658;2022-12-18T06:10:07;26.20;2201.60
56436;DHT22;42335;44.872;20.658;2022-12-18T06:12:33;26.30;2201.60
56436;DHT22;42335;44.872;20.658;2022-12-18T06:15:01;26.40;2201.60
56436;DHT22;42335;44.872;20.658;2022-12-18T06:17:29;26.30;2201.60
56436;DHT22;42335;44.872;20.658;2022-12-18T06:19:55;26.30;2201.60
56436;DHT22;42335;44.872;20.658;2022-12-18T06:22:20;26.30;2201.60
56436;DHT22;42335;44.872;20.658;2022-12-18T06:24:46;26.30;2201.60
56436;DHT22;42335;44.872;20.658;2022-12-18T06:27:12;26.40;2201.60
56436;DHT22;42335;44.872;20.658;2022-12-18T06:29:37;26.30;2201.60
56436;DHT22;42335;44.872;20.658;2022-12-18T06:32:03;26.40;2201.60
56436;DHT22;42335;44.872;20.658;2022-12-18T06:34:29;26.30;2201.60
56436;DHT22;42335;44.872;20.658;2022-12-18T06:36:58;26.40;2201.60
56436;DHT22;42335;44.872;20.658;2022-12-18T06:39:24;51.30;2227.20
56436;DHT22;42335;44.872;20.658;2022-12-18T06:41:50;26.30;2201.60
56436;DHT22;42335;44.872;20.658;2022-12-18T06:44:16;26.40;2201.60
56436;DHT22;42335;44.872;20.658;2022-12-18T06:46:41;26.40;2201.60
56436;DHT22;42335;44.872;20.658;2022-12-18T06:49:07;26.40;2201.60
56436;DHT22;42335;44.872;20.658;2022-12-18T06:51:34;26.50;2201.60
56436;DHT22;42335;44.872;20.658;2022-12-18T06:54:00;26.50;2201.60
56436;DHT22;42335;44.872;20.658;2022-12-18T06:56:27;26.40;2201.60
56436;DHT22;42335;44.872;20.658;2022-12-18T06:58:53;51.20;2227.20
56436;DHT22;42335;44.872;20.658;2022-12-18T07:01:19;51.20;2227.20
56436;DHT22;42335;44.872;20.658;2022-12-18T07:03:45;51.30;2227.20
56436;DHT22;42335;44.872;20.658;2022-12-18T07:06:20;51.20;2227.20
56436;DHT22;42335;44.872;20.658;2022-12-18T07:08:48;51.20;2227.20
56436;DHT22;42335;44.872;20.658;2022-12-18T07:11:14;51.30;2227.20
56436;DHT22;42335;44.872;20.658;2022-12-18T07:13:40;26.50;2201.60
56436;DHT22;42335;44.872;20.658;2022-12-18T07:16:10;26.50;2201.60
56436;DHT22;42335;44.872;20.658;2022-12-18T07:18:36;51.20;2227.20
56436;DHT22;42335;44.872;20.658;2022-12-18T07:21:07;51.30;2227.20
56436;DHT22;42335;44.872;20.658;2022-12-18T07:23:34;51.50;2227.20
56436;DHT22;42335;44.872;20.658;2022-12-18T07:26:04;51.80;2227.20
56436;DHT22;42335;44.872;20.658;2022-12-18T07:28:31;76.90;2227.20
56436;DHT22;42335;44.872;20.658;2022-12-18T07:31:04;77.00;2227.20
56436;DHT22;42335;44.872;20.658;2022-12-18T07:33:32;77.30;2227.20
56436;DHT22;42335;44.872;20.658;2022-12-18T07:36:01;77.50;2227.20
56436;DHT22;42335;44.872;20.658;2022-12-18T07:38:29;102.40;2227.20
56436;DHT22;42335;44.872;20.658;2022-12-18T07:40:54;102.70;2227.20
56436;DHT22;42335;44.872;20.658;2022-12-18T07:43:20;103.10;2227.20
56436;DHT22;42335;44.872;20.658;2022-12-18T07:45:49;103.10;2227.20
56436;DHT22;42335;44.872;20.658;2022-12-18T07:48:15;103.10;2227.20
56436;DHT22;42335;44.872;20.658;2022-12-18T07:50:41;128.00;2252.80
56436;DHT22;42335;44.872;20.658;2022-12-18T07:53:07;128.10;2252.80
56436;DHT22;42335;44.872;20.658;2022-12-18T07:55:32;128.10;2252.80
56436;DHT22;42335;44.872;20.658;2022-12-18T07:58:01;128.00;2252.80
56436;DHT22;42335;44.872;20.658;2022-12-18T08:00:27;103.30;2227.20
56436;DHT22;42335;44.872;20.658;2022-12-18T08:02:53;128.00;2252.80
56436;DHT22;42335;44.872;20.658;2022-12-18T08:05:19;103.30;2227.20
56436;DHT22;42335;44.872;20.658;2022-12-18T08:07:46;103.20;2227.20
56436;DHT22;42335;44.872;20.658;2022-12-18T08:10:13;128.00;2252.80
56436;DHT22;42335;44.872;20.658;2022-12-18T08:12:39;103.20;2227.20
56436;DHT22;42335;44.872;20.658;2022-12-18T08:15:05;103.30;2227.20
56436;DHT22;42335;44.872;20.658;2022-12-18T08:17:31;128.10;2252.80
56436;DHT22;42335;44.872;20.658;2022-12-18T08:19:57;128.30;2252.80
56436;DHT22;42335;44.872;20.658;2022-12-18T08:22:23;128.30;2252.80
56436;DHT22;42335;44.872;20.658;2022-12-18T08:24:48;128.50;2252.80
56436;DHT22;42335;44.872;20.658;2022-12-18T08:27:14;128.90;2252.80
56436;DHT22;42335;44.872;20.658;2022-12-18T08:29:40;154.50;2252.80
56436;DHT22;42335;44.872;20.658;2022-12-18T08:32:06;230.90;2227.20
56436;DHT22;42335;44.872;20.658;2022-12-18T08:34:31;282.40;1920.00
56436;DHT22;42335;44.872;20.658;2022-12-18T08:36:57;333.10;1715.20
56436;DHT22;42335;44.872;20.658;2022-12-18T08:39:24;359.10;1510.40
56436;DHT22;42335;44.872;20.658;2022-12-18T08:41:49;460.80;1305.60
56436;DHT22;42335;44.872;20.658;2022-12-18T08:44:33;460.90;1305.60
56436;DHT22;42335;44.872;20.658;2022-12-18T08:47:03;487.00;1177.60
56436;DHT22;42335;44.872;20.658;2022-12-18T09:16:24;512.60;1075.20
56436;DHT22;42335;44.872;20.658;2022-12-18T09:18:51;563.50;1024.00
56436;DHT22;42335;44.872;20.658;2022-12-18T09:21:19;538.50;998.40
56436;DHT22;42335;44.872;20.658;2022-12-18T09:23:50;589.60;921.60
56436;DHT22;42335;44.872;20.658;2022-12-18T09:26:16;589.30;947.20
56436;DHT22;42335;44.872;20.658;2022-12-18T09:28:42;563.60;972.80
56436;DHT22;42335;44.872;20.658;2022-12-18T09:31:08;512.30;1024.00
56436;DHT22;42335;44.872;20.658;2022-12-18T09:33:36;563.30;972.80
56436;DHT22;42335;44.872;20.658;2022-12-18T09:36:05;563.80;947.20
56436;DHT22;42335;44.872;20.658;2022-12-18T09:38:32;538.10;972.80
56436;DHT22;42335;44.872;20.658;2022-12-18T09:41:03;564.10;921.60
56436;DHT22;42335;44.872;20.658;2022-12-18T09:43:41;614.40;870.40
56436;DHT22;42335;44.872;20.658;2022-12-18T09:46:11;614.60;844.80
56436;DHT22;42335;44.872;20.658;2022-12-18T09:48:44;615.30;819.20
56436;DHT22;42335;44.872;20.658;2022-12-18T09:51:27;666.30;768.00
56436;DHT22;42335;44.872;20.658;2022-12-18T09:53:59;691.90;716.80
56436;DHT22;42335;44.872;20.658;2022-12-18T09:56:28;691.90;742.40
56436;DHT22;42335;44.872;20.658;2022-12-18T09:59:00;716.80;742.40
56436;DHT22;42335;44.872;20.658;2022-12-18T10:01:27;716.90;742.40
56436;DHT22;42335;44.872;20.658;2022-12-18T10:03:55;716.80;716.80
56436;DHT22;42335;44.872;20.658;2022-12-18T10:13:05;717.40;716.80
56436;DHT22;42335;44.872;20.658;2022-12-18T10:18:25;717.50;716.80
56436;DHT22;42335;44.872;20.658;2022-12-18T10:20:56;691.30;742.40
56436;DHT22;42335;44.872;20.658;2022-12-18T10:24:21;691.40;742.40
56436;DHT22;42335;44.872;20.658;2022-12-18T10:26:19;717.50;691.20
56436;DHT22;42335;44.872;20.658;2022-12-18T10:28:45;640.10;768.00
56436;DHT22;42335;44.872;20.658;2022-12-18T10:31:22;564.10;870.40
56436;DHT22;42335;44.872;20.658;2022-12-18T10:33:48;640.00;768.00
56436;DHT22;42335;44.872;20.658;2022-12-18T10:36:15;665.60;768.00
56436;DHT22;42335;44.872;20.658;2022-12-18T10:38:41;691.80;691.20
56436;DHT22;42335;44.872;20.658;2022-12-18T10:44:11;614.50;793.60
56436;DHT22;42335;44.872;20.658;2022-12-18T10:46:37;640.50;742.40
56436;DHT22;42335;44.872;20.658;2022-12-18T10:49:04;589.70;819.20
56436;DHT22;42335;44.872;20.658;2022-12-18T10:51:34;563.50;896.00
56436;DHT22;42335;44.872;20.658;2022-12-18T10:54:05;538.30;896.00
56436;DHT22;42335;44.872;20.658;2022-12-18T10:56:35;461.70;998.40
56436;DHT22;42335;44.872;20.658;2022-12-18T10:59:07;461.30;1024.00
56436;DHT22;42335;44.872;20.658;2022-12-18T11:01:49;409.90;1126.40
56436;DHT22;42335;44.872;20.658;2022-12-18T11:04:24;359.00;1203.20
56436;DHT22;42335;44.872;20.658;2022-12-18T11:06:54;384.40;1228.80
56436;DHT22;42335;44.872;20.658;2022-12-18T11:11:53;461.50;1075.20
56436;DHT22;42335;44.872;20.658;2022-12-18T11:14:29;537.60;947.20
56436;DHT22;42335;44.872;20.658;2022-12-18T11:16:58;537.90;921.60
56436;DHT22;42335;44.872;20.658;2022-12-18T11:19:39;512.20;947.20
56436;DHT22;42335;44.872;20.658;2022-12-18T11:22:26;435.50;1075.20
56436;DHT22;42335;44.872;20.658;2022-12-18T11:24:57;384.00;1203.20
56436;DHT22;42335;44.872;20.658;2022-12-18T11:27:24;358.80;1254.40
56436;DHT22;42335;44.872;20.658;2022-12-18T11:29:50;332.80;1382.40
56436;DHT22;42335;44.872;20.658;2022-12-18T11:34:58;282.50;1408.00
56436;DHT22;42335;44.872;20.658;2022-12-18T11:37:24;281.70;1484.80
56436;DHT22;42335;44.872;20.658;2022-12-18T11:45:24;409.90;1203.20
56436;DHT22;42335;44.872;20.658;2022-12-18T11:47:58;461.70;1049.60
56436;DHT22;42335;44.872;20.658;2022-12-18T11:53:02;563.90;896.00
56436;DHT22;42335;44.872;20.658;2022-12-18T12:34:19;180.10;1792.00
56436;DHT22;42335;44.872;20.658;2022-12-18T12:39:26;180.10;1792.00
56436;DHT22;42335;44.872;20.658;2022-12-18T12:41:53;180.00;1817.60
56436;DHT22;42335;44.872;20.658;2022-12-18T12:44:54;179.80;1843.20
56436;DHT22;42335;44.872;20.658;2022-12-18T12:47:32;179.70;1843.20
56436;DHT22;42335;44.872;20.658;2022-12-18T12:50:03;179.60;1843.20
56436;DHT22;42335;44.872;20.658;2022-12-18T12:52:35;179.60;1843.20
56436;DHT22;42335;44.872;20.658;2022-12-18T12:55:06;179.50;1868.80
56436;DHT22;42335;44.872;20.658;2022-12-18T12:57:40;179.60;1868.80
56436;DHT22;42335;44.872;20.658;2022-12-18T13:00:14;179.60;1894.40
56436;DHT22;42335;44.872;20.658;2022-12-18T13:08:24;179.60;1894.40
56436;DHT22;42335;44.872;20.658;2022-12-18T13:10:53;179.70;1868.80
56436;DHT22;42335;44.872;20.658;2022-12-18T13:13:53;179.70;1868.80
56436;DHT22;42335;44.872;20.658;2022-12-18T13:16:21;179.40;1920.00
56436;DHT22;42335;44.872;20.658;2022-12-18T13:18:56;179.30;1920.00
56436;DHT22;42335;44.872;20.658;2022-12-18T13:21:28;179.30;1920.00
56436;DHT22;42335;44.872;20.658;2022-12-18T13:23:54;154.50;1945.60
56436;DHT22;42335;44.872;20.658;2022-12-18T13:28:53;154.30;1996.80
56436;DHT22;42335;44.872;20.658;2022-12-18T13:34:39;154.10;2048.00
56436;DHT22;42335;44.872;20.658;2022-12-18T13:39:56;153.90;2099.20
56436;DHT22;42335;44.872;20.658;2022-12-18T13:48:10;128.90;2150.40
56436;DHT22;42335;44.872;20.658;2022-12-18T13:50:40;153.60;2176.00
56436;DHT22;42335;44.872;20.658;2022-12-18T13:53:06;153.60;2176.00
56436;DHT22;42335;44.872;20.658;2022-12-18T13:55:32;153.60;2227.20
56436;DHT22;42335;44.872;20.658;2022-12-18T13:58:04;128.90;2252.80
56436;DHT22;42335;44.872;20.658;2022-12-18T14:00:31;128.90;2252.80
56436;DHT22;42335;44.872;20.658;2022-12-18T14:02:58;128.80;2252.80
56436;DHT22;42335;44.872;20.658;2022-12-18T14:05:32;128.70;2252.80
56436;DHT22;42335;44.872;20.658;2022-12-18T14:08:15;128.60;2252.80
56436;DHT22;42335;44.872;20.658;2022-12-18T14:10:46;128.50;2252.80
56436;DHT22;42335;44.872;20.658;2022-12-18T14:13:26;128.40;2252.80
56436;DHT22;42335;44.872;20.658;2022-12-18T14:15:53;128.20;2252.80
